Time,TemperatureF,DewpointF,PressureIn,WindDirection,WindDirectionDegrees,WindSpeedMPH,WindSpeedGustMPH,Humidity,HourlyPrecipIn,Conditions,Clouds,dailyrainin,SoftwareType,DateUTC
2015-07-03 00:02:00,68.0,61.9,29.91,NE,43,1.0,2.0,81,0.00,,,0.00,meteohub,2015-07-03 04:02:00,
2015-07-03 00:07:00,67.8,61.7,29.91,NNE,26,1.0,2.0,81,0.00,,,0.00,meteohub,2015-07-03 04:07:00,
2015-07-03 00:12:00,67.8,61.7,29.91,NNE,24,2.0,2.0,81,0.00,,,0.00,meteohub,2015-07-03 04:12:00,
2015-07-03 00:17:00,67.8,61.7,29.90,NE,49,1.0,2.0,81,0.00,,,0.00,meteohub,2015-07-03 04:17:00,
2015-07-03 00:22:00,67.8,61.7,29.90,NE,53,1.0,2.0,81,0.00,,,0.00,meteohub,2015-07-03 04:22:00,
2015-07-03 00:27:00,67.6,61.9,29.90,ENE,58,2.0,2.0,82,0.00,,,0.00,meteohub,2015-07-03 04:27:00,
2015-07-03 00:32:00,67.6,62.2,29.90,NE,49,1.0,3.0,83,0.00,,,0.00,meteohub,2015-07-03 04:32:00,
2015-07-03 00:37:00,67.5,62.1,29.91,NE,36,1.0,4.0,83,0.00,,,0.00,meteohub,2015-07-03 04:37:00,
2015-07-03 00:42:00,67.3,61.9,29.91,NNE,32,2.0,5.0,83,0.00,,,0.00,meteohub,2015-07-03 04:42:00,
2015-07-03 00:47:00,67.3,61.9,29.90,NE,44,1.0,5.0,83,0.00,,,0.00,meteohub,2015-07-03 04:47:00,
2015-07-03 00:52:00,66.9,61.5,29.90,NE,40,1.0,5.0,83,0.00,,,0.00,meteohub,2015-07-03 04:52:00,
2015-07-03 00:57:00,66.7,61.3,29.91,NE,55,2.0,3.0,83,0.00,,,0.00,meteohub,2015-07-03 04:57:00,
2015-07-03 01:02:00,66.7,61.3,29.91,NE,55,1.0,3.0,83,0.00,,,0.00,meteohub,2015-07-03 05:02:00,
2015-07-03 01:07:00,66.6,61.0,29.91,NNE,26,1.0,5.0,82,0.00,,,0.00,meteohub,2015-07-03 05:07:00,
2015-07-03 01:12:00,66.4,60.8,29.91,NE,38,1.0,5.0,82,0.00,,,0.00,meteohub,2015-07-03 05:12:00,
2015-07-03 01:18:00,66.4,60.8,29.91,NE,42,2.0,5.0,82,0.00,,,0.00,meteohub,2015-07-03 05:18:00,
2015-07-03 01:23:00,66.0,60.4,29.91,NE,39,1.0,5.0,82,0.00,,,0.00,meteohub,2015-07-03 05:23:00,
2015-07-03 01:28:00,65.8,60.3,29.90,NNE,25,2.0,3.0,82,0.00,,,0.00,meteohub,2015-07-03 05:28:00,
2015-07-03 01:33:00,65.8,60.3,29.90,NNE,21,2.0,4.0,82,0.00,,,0.00,meteohub,2015-07-03 05:33:00,
2015-07-03 01:38:00,65.7,60.4,29.90,NNE,23,1.0,4.0,83,0.00,,,0.00,meteohub,2015-07-03 05:38:00,
2015-07-03 01:43:00,65.3,60.1,29.90,NNE,26,1.0,4.0,83,0.00,,,0.00,meteohub,2015-07-03 05:43:00,
2015-07-03 01:48:00,65.1,59.9,29.90,NNE,15,2.0,4.0,83,0.00,,,0.00,meteohub,2015-07-03 05:48:00,
2015-07-03 01:54:00,64.9,59.7,29.90,NE,44,0.0,4.0,83,0.00,,,0.00,meteohub,2015-07-03 05:54:00,
2015-07-03 01:59:00,64.8,59.9,29.90,NNE,17,1.0,4.0,84,0.00,,,0.00,meteohub,2015-07-03 05:59:00,
2015-07-03 02:04:00,64.6,59.7,29.90,NNE,26,1.0,4.0,84,0.00,,,0.00,meteohub,2015-07-03 06:04:00,
2015-07-03 02:09:00,64.6,59.7,29.90,NNE,20,2.0,5.0,84,0.00,,,0.00,meteohub,2015-07-03 06:09:00,
2015-07-03 02:14:00,64.4,59.5,29.90,NNE,26,1.0,5.0,84,0.00,,,0.00,meteohub,2015-07-03 06:14:00,
2015-07-03 02:19:00,64.4,59.5,29.90,NNE,13,2.0,5.0,84,0.00,,,0.00,meteohub,2015-07-03 06:19:00,
2015-07-03 02:25:00,64.2,59.4,29.90,NNE,16,0.0,4.0,84,0.00,,,0.00,meteohub,2015-07-03 06:25:00,
2015-07-03 02:30:00,64.2,59.4,29.90,NNE,22,1.0,4.0,84,0.00,,,0.00,meteohub,2015-07-03 06:30:00,
2015-07-03 02:35:00,64.0,59.2,29.90,NNE,25,1.0,4.0,84,0.00,,,0.00,meteohub,2015-07-03 06:35:00,
2015-07-03 02:40:00,64.0,59.2,29.90,North,11,2.0,4.0,84,0.00,,,0.00,meteohub,2015-07-03 06:40:00,
2015-07-03 02:45:00,64.0,59.2,29.90,NNE,14,2.0,4.0,84,0.00,,,0.00,meteohub,2015-07-03 06:45:00,
2015-07-03 02:50:00,64.0,59.2,29.91,NNE,32,1.0,4.0,84,0.00,,,0.00,meteohub,2015-07-03 06:50:00,
2015-07-03 02:56:00,64.0,59.4,29.90,NE,39,1.0,4.0,85,0.00,,,0.00,meteohub,2015-07-03 06:56:00,
2015-07-03 03:01:00,64.0,59.4,29.90,ENE,62,2.0,4.0,85,0.00,,,0.00,meteohub,2015-07-03 07:01:00,
2015-07-03 03:06:00,64.0,59.4,29.90,NNE,30,1.0,4.0,85,0.00,,,0.00,meteohub,2015-07-03 07:06:00,
2015-07-03 03:11:00,64.0,59.4,29.90,NNE,17,2.0,3.0,85,0.00,,,0.00,meteohub,2015-07-03 07:11:00,
2015-07-03 03:16:00,64.0,59.4,29.90,NNE,26,1.0,3.0,85,0.00,,,0.00,meteohub,2015-07-03 07:16:00,
2015-07-03 03:21:00,64.0,59.4,29.90,NNE,21,1.0,3.0,85,0.00,,,0.00,meteohub,2015-07-03 07:21:00,
2015-07-03 03:27:00,63.9,59.2,29.90,NE,40,1.0,3.0,85,0.00,,,0.00,meteohub,2015-07-03 07:27:00,
2015-07-03 03:32:00,63.9,59.2,29.89,NNE,13,2.0,3.0,85,0.00,,,0.00,meteohub,2015-07-03 07:32:00,
2015-07-03 03:37:00,63.9,59.2,29.90,NNE,33,0.0,3.0,85,0.00,,,0.00,meteohub,2015-07-03 07:37:00,
2015-07-03 03:42:00,63.9,59.2,29.90,NE,38,1.0,3.0,85,0.00,,,0.00,meteohub,2015-07-03 07:42:00,
2015-07-03 03:52:00,63.9,59.5,29.89,NNE,20,1.0,3.0,86,0.00,,,0.00,meteohub,2015-07-03 07:52:00,
2015-07-03 03:57:00,63.7,59.4,29.89,NNE,12,1.0,3.0,86,0.00,,,0.00,meteohub,2015-07-03 07:57:00,
2015-07-03 04:02:00,63.7,59.0,29.89,NE,39,1.0,4.0,85,0.00,,,0.00,meteohub,2015-07-03 08:02:00,
2015-07-03 04:07:00,63.7,59.0,29.88,NE,35,1.0,4.0,85,0.00,,,0.00,meteohub,2015-07-03 08:07:00,
2015-07-03 04:12:00,63.7,59.0,29.88,NNE,24,2.0,5.0,85,0.00,,,0.00,meteohub,2015-07-03 08:12:00,
2015-07-03 04:17:00,63.7,59.0,29.88,NNE,19,1.0,5.0,85,0.00,,,0.00,meteohub,2015-07-03 08:17:00,
2015-07-03 04:22:00,63.7,59.0,29.88,NE,35,1.0,5.0,85,0.00,,,0.00,meteohub,2015-07-03 08:22:00,
2015-07-03 04:27:00,63.5,58.8,29.88,NE,37,1.0,3.0,85,0.00,,,0.00,meteohub,2015-07-03 08:27:00,
2015-07-03 04:32:00,63.3,58.8,29.88,NNE,28,1.0,5.0,85,0.00,,,0.00,meteohub,2015-07-03 08:32:00,
2015-07-03 04:37:00,63.3,58.8,29.88,NNE,30,2.0,5.0,85,0.00,,,0.00,meteohub,2015-07-03 08:37:00,
2015-07-03 04:42:00,63.3,58.5,29.88,North,5,3.0,5.0,84,0.00,,,0.00,meteohub,2015-07-03 08:42:00,
2015-07-03 04:47:00,63.3,58.5,29.88,North,11,1.0,3.0,84,0.00,,,0.00,meteohub,2015-07-03 08:47:00,
2015-07-03 04:52:00,63.5,58.6,29.88,NE,53,1.0,3.0,84,0.00,,,0.00,meteohub,2015-07-03 08:52:00,
2015-07-03 04:57:00,63.5,58.6,29.88,ENE,59,1.0,3.0,84,0.00,,,0.00,meteohub,2015-07-03 08:57:00,
2015-07-03 05:02:00,63.7,58.8,29.88,NNE,25,1.0,4.0,84,0.00,,,0.00,meteohub,2015-07-03 09:02:00,
2015-07-03 05:07:00,63.7,58.8,29.88,ENE,62,2.0,4.0,84,0.00,,,0.00,meteohub,2015-07-03 09:07:00,
2015-07-03 05:12:00,63.5,58.6,29.88,NNE,31,1.0,4.0,84,0.00,,,0.00,meteohub,2015-07-03 09:12:00,
2015-07-03 05:17:00,63.5,58.6,29.88,NNE,32,1.0,2.0,84,0.00,,,0.00,meteohub,2015-07-03 09:17:00,
2015-07-03 05:22:00,63.3,58.5,29.88,NNE,26,1.0,2.0,84,0.00,,,0.00,meteohub,2015-07-03 09:22:00,
2015-07-03 05:27:00,63.3,58.5,29.88,NE,55,0.0,4.0,84,0.00,,,0.00,meteohub,2015-07-03 09:27:00,
2015-07-03 05:32:00,63.3,58.5,29.88,NNE,17,3.0,4.0,84,0.00,,,0.00,meteohub,2015-07-03 09:32:00,
2015-07-03 05:37:00,63.3,58.5,29.88,NNE,24,1.0,4.0,84,0.00,,,0.00,meteohub,2015-07-03 09:37:00,
2015-07-03 05:42:00,63.3,58.5,29.88,NE,42,1.0,4.0,84,0.00,,,0.00,meteohub,2015-07-03 09:42:00,
2015-07-03 05:47:00,63.3,58.5,29.89,NNE,28,2.0,4.0,84,0.00,,,0.00,meteohub,2015-07-03 09:47:00,
2015-07-03 05:52:00,63.3,58.5,29.89,NE,51,1.0,4.0,84,0.00,,,0.00,meteohub,2015-07-03 09:52:00,
2015-07-03 05:57:00,63.3,58.5,29.89,NE,38,1.0,3.0,84,0.00,,,0.00,meteohub,2015-07-03 09:57:00,
2015-07-03 06:02:00,63.3,58.1,29.89,ENE,58,1.0,3.0,83,0.00,,,0.00,meteohub,2015-07-03 10:02:00,
2015-07-03 06:07:00,63.3,58.5,29.89,ENE,67,0.0,3.0,84,0.00,,,0.00,meteohub,2015-07-03 10:07:00,
2015-07-03 06:12:00,63.1,58.3,29.89,ENE,77,1.0,2.0,84,0.00,,,0.00,meteohub,2015-07-03 10:12:00,
2015-07-03 06:17:00,63.1,58.3,29.89,NE,41,2.0,2.0,84,0.00,,,0.00,meteohub,2015-07-03 10:17:00,
2015-07-03 06:22:00,63.1,58.3,29.88,NE,40,1.0,2.0,84,0.00,,,0.00,meteohub,2015-07-03 10:22:00,
2015-07-03 06:27:00,63.1,58.6,29.89,SE,134,1.0,3.0,85,0.00,,,0.00,meteohub,2015-07-03 10:27:00,
2015-07-03 06:32:00,63.1,58.6,29.89,NE,47,2.0,3.0,85,0.00,,,0.00,meteohub,2015-07-03 10:32:00,
2015-07-03 06:37:00,63.1,58.3,29.89,NE,53,1.0,2.0,84,0.00,,,0.00,meteohub,2015-07-03 10:37:00,
2015-07-03 06:42:00,63.1,58.6,29.89,NE,49,0.0,2.0,85,0.00,,,0.00,meteohub,2015-07-03 10:42:00,
2015-07-03 06:47:00,63.1,58.6,29.89,NNE,31,1.0,2.0,85,0.00,,,0.00,meteohub,2015-07-03 10:47:00,
2015-07-03 06:52:00,63.1,58.6,29.90,NE,44,0.0,2.0,85,0.00,,,0.00,meteohub,2015-07-03 10:52:00,
2015-07-03 06:57:00,63.0,58.5,29.90,NE,46,1.0,2.0,85,0.00,,,0.00,meteohub,2015-07-03 10:57:00,
2015-07-03 07:02:00,63.0,58.5,29.90,NE,46,1.0,2.0,85,0.00,,,0.00,meteohub,2015-07-03 11:02:00,
2015-07-03 07:07:00,63.0,58.5,29.89,NE,38,1.0,2.0,85,0.00,,,0.00,meteohub,2015-07-03 11:07:00,
2015-07-03 07:12:00,63.0,58.5,29.89,NNE,23,1.0,4.0,85,0.00,,,0.00,meteohub,2015-07-03 11:12:00,
2015-07-03 07:17:00,63.1,58.6,29.89,NNE,15,4.0,4.0,85,0.00,,,0.00,meteohub,2015-07-03 11:17:00,
2015-07-03 07:22:00,63.1,58.6,29.89,ENE,57,1.0,4.0,85,0.00,,,0.00,meteohub,2015-07-03 11:22:00,
2015-07-03 07:27:00,63.3,58.8,29.90,NE,54,1.0,4.0,85,0.00,,,0.00,meteohub,2015-07-03 11:27:00,
2015-07-03 07:32:00,63.3,58.5,29.90,NE,53,1.0,4.0,84,0.00,,,0.00,meteohub,2015-07-03 11:32:00,
2015-07-03 07:37:00,63.1,58.6,29.90,NNE,18,2.0,3.0,85,0.00,,,0.00,meteohub,2015-07-03 11:37:00,
2015-07-03 07:42:00,63.1,58.6,29.90,NE,46,1.0,3.0,85,0.00,,,0.00,meteohub,2015-07-03 11:42:00,
2015-07-03 07:47:00,63.1,58.6,29.90,NE,36,1.0,3.0,85,0.00,,,0.00,meteohub,2015-07-03 11:47:00,
2015-07-03 07:52:00,63.1,58.6,29.90,NE,34,1.0,3.0,85,0.00,,,0.00,meteohub,2015-07-03 11:52:00,
2015-07-03 07:57:00,63.3,58.8,29.90,NE,48,2.0,2.0,85,0.00,,,0.00,meteohub,2015-07-03 11:57:00,
2015-07-03 08:02:00,63.3,58.8,29.90,NNE,20,1.0,2.0,85,0.00,,,0.00,meteohub,2015-07-03 12:02:00,
2015-07-03 08:07:00,63.3,58.8,29.90,NE,53,1.0,2.0,85,0.00,,,0.00,meteohub,2015-07-03 12:07:00,
2015-07-03 08:12:00,63.3,58.8,29.90,NNE,29,1.0,4.0,85,0.00,,,0.00,meteohub,2015-07-03 12:12:00,
2015-07-03 08:17:00,63.5,58.8,29.90,East,93,1.0,4.0,85,0.00,,,0.00,meteohub,2015-07-03 12:17:00,
2015-07-03 08:22:00,63.5,58.8,29.90,NE,52,1.0,4.0,85,0.00,,,0.00,meteohub,2015-07-03 12:22:00,
2015-07-03 08:27:00,63.7,59.0,29.89,East,82,2.0,2.0,85,0.00,,,0.00,meteohub,2015-07-03 12:27:00,
2015-07-03 08:33:00,63.9,59.0,29.89,NE,47,2.0,2.0,84,0.00,,,0.00,meteohub,2015-07-03 12:33:00,
2015-07-03 08:38:00,63.9,59.2,29.89,ENE,60,2.0,3.0,85,0.00,,,0.00,meteohub,2015-07-03 12:38:00,
2015-07-03 08:43:00,63.9,59.2,29.89,ENE,76,1.0,3.0,85,0.00,,,0.00,meteohub,2015-07-03 12:43:00,
2015-07-03 08:48:00,64.0,59.2,29.89,NE,49,2.0,3.0,84,0.00,,,0.00,meteohub,2015-07-03 12:48:00,
2015-07-03 08:53:00,64.0,59.4,29.89,ESE,119,0.0,3.0,85,0.00,,,0.00,meteohub,2015-07-03 12:53:00,
2015-07-03 08:58:00,64.2,59.4,29.89,NE,34,1.0,3.0,84,0.00,,,0.00,meteohub,2015-07-03 12:58:00,
2015-07-03 09:03:00,64.6,59.7,29.89,ENE,59,1.0,3.0,84,0.00,,,0.00,meteohub,2015-07-03 13:03:00,
2015-07-03 09:09:00,64.8,59.9,29.89,NNE,19,2.0,2.0,84,0.00,,,0.00,meteohub,2015-07-03 13:09:00,
2015-07-03 09:14:00,64.9,59.9,29.89,NNE,27,1.0,4.0,84,0.00,,,0.00,meteohub,2015-07-03 13:14:00,
2015-07-03 09:19:00,65.1,59.9,29.89,ENE,57,1.0,4.0,83,0.00,,,0.00,meteohub,2015-07-03 13:19:00,
2015-07-03 09:24:00,65.3,60.1,29.89,NNE,26,1.0,4.0,83,0.00,,,0.00,meteohub,2015-07-03 13:24:00,
2015-07-03 09:29:00,65.5,60.3,29.89,NNE,33,2.0,4.0,83,0.00,,,0.00,meteohub,2015-07-03 13:29:00,
2015-07-03 09:34:00,65.7,60.1,29.89,NNE,26,1.0,4.0,82,0.00,,,0.00,meteohub,2015-07-03 13:34:00,
2015-07-03 09:40:00,65.7,60.1,29.89,ENE,58,1.0,3.0,82,0.00,,,0.00,meteohub,2015-07-03 13:40:00,
2015-07-03 09:45:00,65.8,60.3,29.89,ENE,66,1.0,3.0,82,0.00,,,0.00,meteohub,2015-07-03 13:45:00,
2015-07-03 09:50:00,66.2,60.6,29.89,ESE,118,1.0,4.0,82,0.00,,,0.00,meteohub,2015-07-03 13:50:00,
2015-07-03 09:55:00,66.6,60.6,29.89,ENE,68,1.0,4.0,81,0.00,,,0.00,meteohub,2015-07-03 13:55:00,
2015-07-03 10:00:00,66.7,60.8,29.88,ESE,113,1.0,3.0,81,0.00,,,0.00,meteohub,2015-07-03 14:00:00,
2015-07-03 10:05:00,66.7,60.8,29.88,NE,47,1.0,3.0,81,0.00,,,0.00,meteohub,2015-07-03 14:05:00,
2015-07-03 10:11:00,66.9,61.2,29.88,NNE,33,0.0,2.0,82,0.00,,,0.00,meteohub,2015-07-03 14:11:00,
2015-07-03 10:16:00,67.3,61.0,29.89,ESE,105,1.0,2.0,80,0.00,,,0.00,meteohub,2015-07-03 14:16:00,
2015-07-03 10:21:00,67.5,61.2,29.89,NE,49,1.0,2.0,80,0.00,,,0.00,meteohub,2015-07-03 14:21:00,
2015-07-03 10:26:00,67.5,61.2,29.89,ENE,57,1.0,3.0,80,0.00,,,0.00,meteohub,2015-07-03 14:26:00,
2015-07-03 10:31:00,67.6,61.5,29.89,NNE,30,1.0,3.0,81,0.00,,,0.00,meteohub,2015-07-03 14:31:00,
2015-07-03 10:36:00,67.8,61.7,29.89,ESE,107,1.0,4.0,81,0.00,,,0.00,meteohub,2015-07-03 14:36:00,
2015-07-03 10:41:00,67.8,61.3,29.89,NNE,21,1.0,4.0,80,0.00,,,0.00,meteohub,2015-07-03 14:41:00,
2015-07-03 10:47:00,68.0,61.5,29.89,NNE,22,1.0,4.0,80,0.00,,,0.00,meteohub,2015-07-03 14:47:00,
2015-07-03 10:52:00,67.8,61.3,29.89,NNE,16,1.0,3.0,80,0.00,,,0.00,meteohub,2015-07-03 14:52:00,
2015-07-03 10:57:00,67.8,61.0,29.89,NE,51,0.0,3.0,79,0.00,,,0.00,meteohub,2015-07-03 14:57:00,
2015-07-03 11:02:00,67.8,61.3,29.89,NNE,29,0.0,3.0,80,0.00,,,0.00,meteohub,2015-07-03 15:02:00,
2015-07-03 11:07:00,67.8,61.0,29.89,NNE,30,0.0,3.0,79,0.00,,,0.00,meteohub,2015-07-03 15:07:00,
2015-07-03 11:12:00,67.8,61.7,29.89,NE,52,1.0,4.0,81,0.00,,,0.00,meteohub,2015-07-03 15:12:00,
2015-07-03 11:17:00,67.8,61.3,29.89,NE,40,1.0,4.0,80,0.00,,,0.00,meteohub,2015-07-03 15:17:00,
2015-07-03 11:22:00,68.0,61.5,29.89,NE,45,1.0,3.0,80,0.00,,,0.00,meteohub,2015-07-03 15:22:00,
2015-07-03 11:27:00,68.2,62.1,29.89,NNE,30,1.0,3.0,81,0.00,,,0.00,meteohub,2015-07-03 15:27:00,
2015-07-03 11:32:00,68.2,61.3,29.89,NE,46,1.0,3.0,79,0.00,,,0.00,meteohub,2015-07-03 15:32:00,
2015-07-03 11:37:00,68.4,62.2,29.90,NNE,24,0.0,3.0,81,0.00,,,0.00,meteohub,2015-07-03 15:37:00,
2015-07-03 11:42:00,68.4,61.9,29.90,ENE,65,0.0,3.0,80,0.00,,,0.00,meteohub,2015-07-03 15:42:00,
2015-07-03 11:47:00,68.5,62.4,29.89,NNE,24,1.0,3.0,81,0.00,,,0.00,meteohub,2015-07-03 15:47:00,
2015-07-03 11:52:00,68.9,63.1,29.89,NE,45,2.0,3.0,82,0.00,,,0.00,meteohub,2015-07-03 15:52:00,
2015-07-03 11:57:00,69.1,62.2,29.89,NNE,19,2.0,3.0,79,0.00,,,0.00,meteohub,2015-07-03 15:57:00,
2015-07-03 12:02:00,69.3,62.8,29.89,NE,55,1.0,3.0,80,0.00,,,0.00,meteohub,2015-07-03 16:02:00,
2015-07-03 12:07:00,69.6,63.1,29.89,NE,46,1.0,4.0,80,0.00,,,0.00,meteohub,2015-07-03 16:07:00,
2015-07-03 12:12:00,70.3,64.2,29.89,ENE,61,1.0,4.0,81,0.00,,,0.00,meteohub,2015-07-03 16:12:00,
2015-07-03 12:17:00,71.2,64.0,29.89,NE,52,1.0,3.0,78,0.00,,,0.00,meteohub,2015-07-03 16:17:00,
2015-07-03 12:22:00,71.8,64.2,29.89,ENE,74,2.0,5.0,77,0.00,,,0.00,meteohub,2015-07-03 16:22:00,
2015-07-03 12:27:00,72.0,63.7,29.89,NNE,18,3.0,5.0,75,0.00,,,0.00,meteohub,2015-07-03 16:27:00,
2015-07-03 12:32:00,72.0,63.7,29.89,NE,46,2.0,5.0,75,0.00,,,0.00,meteohub,2015-07-03 16:32:00,
2015-07-03 12:37:00,71.8,63.0,29.89,NE,35,2.0,4.0,74,0.00,,,0.00,meteohub,2015-07-03 16:37:00,
2015-07-03 12:42:00,71.4,63.5,29.89,NNE,20,1.0,4.0,76,0.00,,,0.00,meteohub,2015-07-03 16:42:00,
2015-07-03 12:47:00,71.4,62.8,29.89,NNE,27,1.0,3.0,74,0.00,,,0.00,meteohub,2015-07-03 16:47:00,
2015-07-03 12:52:00,71.8,63.0,29.89,NE,45,2.0,3.0,74,0.00,,,0.00,meteohub,2015-07-03 16:52:00,
2015-07-03 12:57:00,71.8,63.5,29.89,NE,34,2.0,3.0,75,0.00,,,0.00,meteohub,2015-07-03 16:57:00,
2015-07-03 13:02:00,72.0,63.7,29.89,NNE,26,1.0,3.0,75,0.00,,,0.00,meteohub,2015-07-03 17:02:00,
2015-07-03 13:07:00,72.1,63.3,29.89,NE,53,2.0,3.0,74,0.00,,,0.00,meteohub,2015-07-03 17:07:00,
2015-07-03 13:12:00,72.0,62.8,29.89,NNE,32,2.0,3.0,73,0.00,,,0.00,meteohub,2015-07-03 17:12:00,
2015-07-03 13:17:00,71.8,63.0,29.89,NE,42,1.0,8.0,74,0.00,,,0.00,meteohub,2015-07-03 17:17:00,
2015-07-03 13:22:00,71.8,63.9,29.89,NE,55,1.0,8.0,76,0.00,,,0.00,meteohub,2015-07-03 17:22:00,
2015-07-03 13:27:00,72.0,63.1,29.89,NE,40,1.0,5.0,74,0.00,,,0.00,meteohub,2015-07-03 17:27:00,
2015-07-03 13:32:00,71.8,63.0,29.89,ENE,63,2.0,5.0,74,0.00,,,0.00,meteohub,2015-07-03 17:32:00,
2015-07-03 13:37:00,71.8,63.5,29.88,NE,50,1.0,5.0,75,0.00,,,0.00,meteohub,2015-07-03 17:37:00,
2015-07-03 13:42:00,72.0,64.0,29.88,NE,50,1.0,5.0,76,0.00,,,0.00,meteohub,2015-07-03 17:42:00,
2015-07-03 13:47:00,72.1,63.3,29.88,NE,56,1.0,3.0,74,0.00,,,0.00,meteohub,2015-07-03 17:47:00,
2015-07-03 13:52:00,72.3,63.1,29.88,NE,52,2.0,3.0,73,0.00,,,0.00,meteohub,2015-07-03 17:52:00,
2015-07-03 13:57:00,72.7,63.9,29.88,SSE,165,2.0,3.0,74,0.00,,,0.00,meteohub,2015-07-03 17:57:00,
2015-07-03 14:02:00,72.9,63.3,29.88,ENE,64,2.0,5.0,72,0.00,,,0.00,meteohub,2015-07-03 18:02:00,
2015-07-03 14:07:00,73.0,64.2,29.87,ENE,57,1.0,5.0,74,0.00,,,0.00,meteohub,2015-07-03 18:07:00,
2015-07-03 14:12:00,73.2,64.0,29.87,East,81,3.0,5.0,73,0.00,,,0.00,meteohub,2015-07-03 18:12:00,
2015-07-03 14:17:00,73.0,62.6,29.87,NE,53,1.0,4.0,70,0.00,,,0.00,meteohub,2015-07-03 18:17:00,
2015-07-03 14:22:00,72.9,63.3,29.87,East,86,1.0,3.0,72,0.00,,,0.00,meteohub,2015-07-03 18:22:00,
2015-07-03 14:27:00,72.9,63.0,29.87,East,95,2.0,3.0,71,0.00,,,0.00,meteohub,2015-07-03 18:27:00,
2015-07-03 14:32:00,72.7,62.8,29.87,East,98,1.0,3.0,71,0.00,,,0.00,meteohub,2015-07-03 18:32:00,
2015-07-03 14:37:00,72.7,62.2,29.87,ENE,59,1.0,5.0,70,0.00,,,0.00,meteohub,2015-07-03 18:37:00,
2015-07-03 14:42:00,72.3,61.5,29.87,East,94,1.0,5.0,69,0.00,,,0.00,meteohub,2015-07-03 18:42:00,
2015-07-03 14:47:00,72.3,62.1,29.87,ESE,105,1.0,5.0,70,0.00,,,0.00,meteohub,2015-07-03 18:47:00,
2015-07-03 14:52:00,72.3,62.8,29.86,NE,44,1.0,4.0,72,0.00,,,0.00,meteohub,2015-07-03 18:52:00,
2015-07-03 14:57:00,72.3,62.8,29.87,East,88,1.0,4.0,72,0.00,,,0.00,meteohub,2015-07-03 18:57:00,
2015-07-03 15:02:00,72.3,62.1,29.87,NE,51,1.0,3.0,70,0.00,,,0.00,meteohub,2015-07-03 19:02:00,
2015-07-03 15:07:00,72.3,62.8,29.86,ENE,69,1.0,3.0,72,0.00,,,0.00,meteohub,2015-07-03 19:07:00,
2015-07-03 15:12:00,72.5,63.7,29.86,ENE,67,2.0,3.0,74,0.00,,,0.00,meteohub,2015-07-03 19:12:00,
2015-07-03 15:17:00,72.7,63.5,29.86,ESE,116,1.0,3.0,73,0.00,,,0.00,meteohub,2015-07-03 19:17:00,
2015-07-03 15:22:00,72.5,63.0,29.86,NE,44,1.0,3.0,72,0.00,,,0.00,meteohub,2015-07-03 19:22:00,
2015-07-03 15:27:00,72.5,62.6,29.86,NE,43,1.0,3.0,71,0.00,,,0.00,meteohub,2015-07-03 19:27:00,
2015-07-03 15:32:00,72.3,62.8,29.87,East,84,1.0,3.0,72,0.00,,,0.00,meteohub,2015-07-03 19:32:00,
2015-07-03 15:37:00,72.1,62.6,29.86,East,96,1.0,5.0,72,0.00,,,0.00,meteohub,2015-07-03 19:37:00,
2015-07-03 15:42:00,72.1,63.3,29.87,East,96,1.0,5.0,74,0.00,,,0.00,meteohub,2015-07-03 19:42:00,
2015-07-03 15:47:00,72.1,63.9,29.86,ESE,116,2.0,5.0,75,0.00,,,0.00,meteohub,2015-07-03 19:47:00,
2015-07-03 15:52:00,72.1,63.3,29.86,NE,46,2.0,3.0,74,0.00,,,0.00,meteohub,2015-07-03 19:52:00,
2015-07-03 15:57:00,71.6,64.0,29.86,ESE,120,1.0,6.0,77,0.00,,,0.00,meteohub,2015-07-03 19:57:00,
2015-07-03 16:02:00,71.1,64.6,29.86,ESE,107,1.0,6.0,80,0.00,,,0.00,meteohub,2015-07-03 20:02:00,
2015-07-03 16:07:00,70.3,64.2,29.86,East,101,0.0,7.0,81,0.00,,,0.00,meteohub,2015-07-03 20:07:00,
2015-07-03 16:12:00,69.6,64.2,29.87,ESE,107,1.0,7.0,83,0.00,,,0.00,meteohub,2015-07-03 20:12:00,
2015-07-03 16:17:00,69.3,64.9,29.86,SE,124,8.0,8.0,86,0.00,,,0.00,meteohub,2015-07-03 20:17:00,
2015-07-03 16:22:00,68.7,64.4,29.86,ESE,107,0.0,9.0,86,0.00,,,0.00,meteohub,2015-07-03 20:22:00,
2015-07-03 16:27:00,68.7,64.8,29.87,ESE,108,0.0,9.0,87,0.00,,,0.00,meteohub,2015-07-03 20:27:00,
2015-07-03 16:32:00,68.7,64.9,29.87,ESE,107,0.0,9.0,88,0.00,,,0.00,meteohub,2015-07-03 20:32:00,
2015-07-03 16:37:00,68.7,64.4,29.87,NE,53,1.0,4.0,86,0.00,,,0.00,meteohub,2015-07-03 20:37:00,
2015-07-03 16:42:00,68.7,64.0,29.87,NNE,18,2.0,3.0,85,0.00,,,0.00,meteohub,2015-07-03 20:42:00,
2015-07-03 16:47:00,68.7,64.0,29.86,ENE,59,2.0,3.0,85,0.00,,,0.00,meteohub,2015-07-03 20:47:00,
2015-07-03 16:52:00,68.7,63.7,29.86,ENE,61,1.0,3.0,84,0.00,,,0.00,meteohub,2015-07-03 20:52:00,
2015-07-03 16:57:00,68.9,63.5,29.86,NNE,24,1.0,3.0,83,0.00,,,0.00,meteohub,2015-07-03 20:57:00,
2015-07-03 17:02:00,69.3,61.7,29.86,NNE,22,5.0,5.0,77,0.00,,,0.00,meteohub,2015-07-03 21:02:00,
2015-07-03 17:07:00,69.4,62.2,29.86,NNE,27,2.0,7.0,78,0.00,,,0.00,meteohub,2015-07-03 21:07:00,
2015-07-03 17:12:00,69.4,62.2,29.86,NNE,28,1.0,7.0,78,0.00,,,0.00,meteohub,2015-07-03 21:12:00,
2015-07-03 17:17:00,69.6,62.8,29.86,NE,49,1.0,7.0,79,0.00,,,0.00,meteohub,2015-07-03 21:17:00,
2015-07-03 17:22:00,69.6,62.4,29.86,NE,49,2.0,5.0,78,0.00,,,0.00,meteohub,2015-07-03 21:22:00,
2015-07-03 17:27:00,69.6,62.8,29.86,NE,34,1.0,4.0,79,0.00,,,0.00,meteohub,2015-07-03 21:27:00,
2015-07-03 17:32:00,69.6,62.4,29.86,ENE,57,1.0,4.0,78,0.00,,,0.00,meteohub,2015-07-03 21:32:00,
2015-07-03 17:37:00,69.6,62.1,29.86,North,5,2.0,4.0,77,0.00,,,0.00,meteohub,2015-07-03 21:37:00,
2015-07-03 17:42:00,69.6,62.1,29.86,NE,47,1.0,3.0,77,0.00,,,0.00,meteohub,2015-07-03 21:42:00,
2015-07-03 17:47:00,69.6,61.7,29.86,NE,51,1.0,3.0,76,0.00,,,0.00,meteohub,2015-07-03 21:47:00,
2015-07-03 17:52:00,69.6,61.7,29.86,NNE,19,2.0,3.0,76,0.00,,,0.00,meteohub,2015-07-03 21:52:00,
2015-07-03 17:57:00,69.6,61.3,29.86,NNE,15,2.0,3.0,75,0.00,,,0.00,meteohub,2015-07-03 21:57:00,
2015-07-03 18:02:00,69.6,61.7,29.86,NNE,13,2.0,3.0,76,0.00,,,0.00,meteohub,2015-07-03 22:02:00,
2015-07-03 18:07:00,69.6,61.3,29.86,NNE,13,2.0,3.0,75,0.00,,,0.00,meteohub,2015-07-03 22:07:00,
2015-07-03 18:12:00,69.6,61.0,29.86,NE,38,2.0,3.0,74,0.00,,,0.00,meteohub,2015-07-03 22:12:00,
2015-07-03 18:17:00,69.6,61.3,29.86,NNE,16,0.0,3.0,75,0.00,,,0.00,meteohub,2015-07-03 22:17:00,
2015-07-03 18:22:00,69.8,61.5,29.86,NE,44,1.0,3.0,75,0.00,,,0.00,meteohub,2015-07-03 22:22:00,
2015-07-03 18:27:00,69.8,61.5,29.86,NNE,16,1.0,3.0,75,0.00,,,0.00,meteohub,2015-07-03 22:27:00,
2015-07-03 18:32:00,69.8,61.9,29.86,NNE,17,0.0,3.0,76,0.00,,,0.00,meteohub,2015-07-03 22:32:00,
2015-07-03 18:37:00,69.8,61.9,29.86,NNE,17,0.0,3.0,76,0.00,,,0.00,meteohub,2015-07-03 22:37:00,
2015-07-03 18:42:00,69.8,62.2,29.86,NNE,17,0.0,3.0,77,0.00,,,0.00,meteohub,2015-07-03 22:42:00,
2015-07-03 18:47:00,69.6,62.1,29.86,East,93,0.0,1.0,77,0.00,,,0.00,meteohub,2015-07-03 22:47:00,
2015-07-03 18:52:00,69.6,62.4,29.86,SE,140,1.0,2.0,78,0.00,,,0.00,meteohub,2015-07-03 22:52:00,
2015-07-03 18:57:00,69.6,62.4,29.85,SE,130,1.0,2.0,78,0.00,,,0.00,meteohub,2015-07-03 22:57:00,
2015-07-03 19:02:00,69.6,62.8,29.85,ENE,66,1.0,2.0,79,0.00,,,0.00,meteohub,2015-07-03 23:02:00,
2015-07-03 19:07:00,69.6,63.1,29.85,ENE,63,1.0,2.0,80,0.00,,,0.00,meteohub,2015-07-03 23:07:00,
2015-07-03 19:12:00,69.6,63.1,29.85,East,83,1.0,2.0,80,0.00,,,0.00,meteohub,2015-07-03 23:12:00,
2015-07-03 19:17:00,69.6,63.1,29.84,ENE,65,0.0,2.0,80,0.00,,,0.00,meteohub,2015-07-03 23:17:00,
2015-07-03 19:22:00,69.8,63.3,29.85,ENE,69,0.0,2.0,80,0.00,,,0.00,meteohub,2015-07-03 23:22:00,
2015-07-03 19:27:00,69.8,63.3,29.85,ESE,102,1.0,2.0,80,0.00,,,0.00,meteohub,2015-07-03 23:27:00,
2015-07-03 19:32:00,70.0,63.5,29.85,NE,44,1.0,2.0,80,0.00,,,0.00,meteohub,2015-07-03 23:32:00,
2015-07-03 19:37:00,70.2,63.7,29.85,NE,45,1.0,2.0,80,0.00,,,0.00,meteohub,2015-07-03 23:37:00,
2015-07-03 19:42:00,70.0,63.5,29.85,NE,43,1.0,2.0,80,0.00,,,0.00,meteohub,2015-07-03 23:42:00,
2015-07-03 19:47:00,70.0,63.5,29.85,NNE,23,1.0,2.0,80,0.00,,,0.00,meteohub,2015-07-03 23:47:00,
2015-07-03 19:52:00,70.2,64.0,29.85,East,84,1.0,2.0,81,0.00,,,0.00,meteohub,2015-07-03 23:52:00,
2015-07-03 19:57:00,70.2,63.7,29.86,ENE,74,1.0,2.0,80,0.00,,,0.00,meteohub,2015-07-03 23:57:00,
2015-07-03 20:02:00,70.2,64.0,29.86,SE,136,0.0,2.0,81,0.00,,,0.00,meteohub,2015-07-04 00:02:00,
2015-07-03 20:07:00,70.3,64.2,29.86,ESE,123,2.0,3.0,81,0.00,,,0.00,meteohub,2015-07-04 00:07:00,
2015-07-03 20:12:00,70.3,64.2,29.85,South,175,1.0,3.0,81,0.00,,,0.00,meteohub,2015-07-04 00:12:00,
2015-07-03 20:17:00,70.3,64.6,29.86,ESE,110,1.0,3.0,82,0.00,,,0.00,meteohub,2015-07-04 00:17:00,
2015-07-03 20:22:00,70.3,64.6,29.86,SE,130,3.0,3.0,82,0.00,,,0.00,meteohub,2015-07-04 00:22:00,
2015-07-03 20:27:00,70.5,64.8,29.86,SE,130,1.0,3.0,82,0.00,,,0.00,meteohub,2015-07-04 00:27:00,